Time;durP1;ratioP1;P1;durP2;ratioP2;P2;SDS_P1;SDS_P2;PMS_P1;PMS_P2;Temp;Humidity;BMP_temperature;BMP_pressure;BME280_temperature;BME280_humidity;BME280_pressure;Samples;Min_cycle;Max_cycle;Signal;HPM_P1;HPM_P2
2021/08/10 00:02:15;;;;;;;3.72;2.97;;;25.90;51.00;;;;;;5047938;28;20075;-63
2021/08/10 00:04:41;;;;;;;3.78;2.70;;;25.80;51.00;;;;;;5047752;28;20056;-61
2021/08/10 00:07:08;;;;;;;3.38;2.47;;;25.90;51.10;;;;;;5051287;28;20500;-60
2021/08/10 00:09:34;;;;;;;3.70;2.78;;;25.90;51.10;;;;;;5047747;28;20404;-60
2021/08/10 00:11:59;;;;;;;3.78;2.60;;;25.80;51.10;;;;;;5046411;28;20085;-63
2021/08/10 00:14:25;;;;;;;3.65;2.17;;;25.80;51.10;;;;;;5047768;28;20123;-59
2021/08/10 00:16:51;;;;;;;3.42;2.38;;;25.80;51.10;;;;;;5048025;28;20033;-61
2021/08/10 00:19:16;;;;;;;3.28;2.33;;;25.80;51.10;;;;;;5047186;28;20048;-60
2021/08/10 00:21:43;;;;;;;3.72;2.50;;;25.70;51.10;;;;;;5047508;28;20040;-60
2021/08/10 00:24:09;;;;;;;4.00;2.80;;;25.70;51.20;;;;;;5044361;28;20020;-62
2021/08/10 00:26:34;;;;;;;3.50;2.30;;;25.70;51.20;;;;;;5048471;28;20044;-60
2021/08/10 00:29:03;;;;;;;3.20;2.28;;;25.70;51.70;;;;;;5047305;28;20036;-54
2021/08/10 00:31:28;;;;;;;4.60;2.50;;;25.70;51.20;;;;;;5046265;28;20049;-60
2021/08/10 00:33:54;;;;;;;3.50;2.25;;;25.70;51.30;;;;;;5044531;28;20078;-61
2021/08/10 00:36:19;;;;;;;3.95;2.40;;;25.60;51.20;;;;;;5058045;28;20103;-60
2021/08/10 00:38:45;;;;;;;3.53;2.28;;;25.70;51.30;;;;;;5046620;28;20463;-54
2021/08/10 00:41:11;;;;;;;3.42;2.35;;;25.60;51.30;;;;;;5030952;28;20564;-57
2021/08/10 00:43:40;;;;;;;3.38;2.30;;;25.60;51.30;;;;;;5046882;28;20362;-57
2021/08/10 00:46:09;;;;;;;3.88;2.28;;;25.60;51.30;;;;;;5058717;28;20032;-55
2021/08/10 00:48:35;;;;;;;3.72;2.35;;;25.60;51.30;;;;;;5064185;28;20512;-60
2021/08/10 00:51:02;;;;;;;3.03;2.30;;;25.60;51.30;;;;;;5046614;28;20053;-59
2021/08/10 00:53:28;;;;;;;3.00;2.05;;;25.50;51.30;;;;;;5051463;28;20025;-60
2021/08/10 00:55:54;;;;;;;4.50;2.20;;;25.50;51.30;;;;;;5047785;28;20446;-62
2021/08/10 00:58:21;;;;;;;3.25;2.15;;;25.50;51.30;;;;;;5047097;28;20052;-62
2021/08/10 01:00:47;;;;;;;3.40;2.13;;;25.50;51.30;;;;;;5045383;28;20341;-62
2021/08/10 01:03:13;;;;;;;2.60;1.98;;;25.50;51.40;;;;;;5044482;28;20143;-60
2021/08/10 01:05:47;;;;;;;3.25;2.05;;;25.50;51.40;;;;;;5039991;28;20370;-61
2021/08/10 01:08:16;;;;;;;3.28;1.98;;;25.40;51.30;;;;;;5048527;28;20043;-59
2021/08/10 01:10:58;;;;;;;4.28;2.30;;;25.40;51.40;;;;;;5045494;28;20509;-60
2021/08/10 01:13:41;;;;;;;2.63;1.92;;;25.40;51.40;;;;;;5030734;28;20382;-61
2021/08/10 01:16:10;;;;;;;3.15;2.30;;;25.40;51.40;;;;;;5040440;28;20029;-58
2021/08/10 01:18:41;;;;;;;2.50;1.90;;;25.40;51.40;;;;;;5044463;28;20071;-60
2021/08/10 01:21:24;;;;;;;3.28;2.42;;;25.40;51.90;;;;;;5049679;28;20401;-60
2021/08/10 01:24:00;;;;;;;2.63;1.98;;;25.40;51.40;;;;;;5046601;28;20059;-61
2021/08/10 01:26:29;;;;;;;2.88;2.00;;;25.40;51.40;;;;;;5054351;28;20490;-59
2021/08/10 01:29:16;;;;;;;3.72;2.28;;;25.40;51.50;;;;;;5060595;28;20022;-59
2021/08/10 01:31:43;;;;;;;2.60;1.90;;;25.40;51.40;;;;;;5046183;28;20465;-59
2021/08/10 01:34:28;;;;;;;3.05;2.10;;;25.30;51.40;;;;;;5044912;28;20025;-59
2021/08/10 01:36:56;;;;;;;3.50;1.98;;;25.30;51.40;;;;;;5050141;28;20056;-59
2021/08/10 01:39:24;;;;;;;3.00;2.10;;;25.30;51.50;;;;;;5051613;28;20207;-60
2021/08/10 01:41:51;;;;;;;3.05;2.03;;;25.30;51.50;;;;;;5057978;28;20085;-60
2021/08/10 01:44:17;;;;;;;2.85;2.15;;;25.30;51.50;;;;;;5059255;28;20112;-58
2021/08/10 01:46:46;;;;;;;3.00;1.73;;;25.30;51.50;;;;;;5044575;28;20056;-59
2021/08/10 01:49:12;;;;;;;2.92;2.00;;;25.20;51.50;;;;;;5040821;28;20037;-61
2021/08/10 01:51:38;;;;;;;2.65;2.00;;;25.20;51.50;;;;;;5039330;28;20378;-61
2021/08/10 01:54:04;;;;;;;2.60;1.75;;;25.20;51.50;;;;;;5046577;28;20037;-55
2021/08/10 01:56:31;;;;;;;2.75;1.88;;;25.20;51.50;;;;;;5045416;28;20444;-60
2021/08/10 01:59:01;;;;;;;3.03;1.75;;;25.20;51.50;;;;;;5045799;28;20024;-60
2021/08/10 02:01:30;;;;;;;2.97;1.95;;;25.20;51.50;;;;;;5048950;28;20032;-64
2021/08/10 02:03:56;;;;;;;;;;;25.20;51.50;;;;;;5048134;28;20094;-60
2021/08/10 02:06:23;;;;;;;2.83;1.75;;;25.20;51.50;;;;;;5044810;28;19913;-61
2021/08/10 02:08:51;;;;;;;2.75;2.08;;;25.20;51.60;;;;;;5055910;28;20920;-63
2021/08/10 02:11:18;;;;;;;3.00;1.70;;;25.10;51.50;;;;;;5042989;28;20025;-57
2021/08/10 02:13:45;;;;;;;2.70;1.88;;;25.10;51.50;;;;;;5046813;28;20048;-60
2021/08/10 02:16:11;;;;;;;2.58;1.77;;;25.10;51.60;;;;;;5045525;28;20476;-58
2021/08/10 02:18:40;;;;;;;2.78;1.80;;;25.10;51.60;;;;;;5044420;28;20414;-62
2021/08/10 02:21:12;;;;;;;3.08;1.90;;;25.10;51.60;;;;;;5048386;28;20463;-58
2021/08/10 02:23:39;;;;;;;2.90;1.80;;;25.10;51.60;;;;;;5060468;28;20051;-57
2021/08/10 02:26:05;;;;;;;2.63;1.83;;;25.10;51.60;;;;;;5051635;28;20040;-60
2021/08/10 02:28:34;;;;;;;2.70;1.80;;;25.10;51.70;;;;;;5045156;28;20457;-63
2021/08/10 02:31:02;;;;;;;2.17;1.48;;;25.10;51.70;;;;;;5043292;28;20140;-63
2021/08/10 02:33:28;;;;;;;2.45;1.77;;;25.10;51.70;;;;;;5045351;28;20239;-61
2021/08/10 02:35:59;;;;;;;2.67;1.75;;;25.10;51.70;;;;;;5046665;28;20036;-55
2021/08/10 02:38:26;;;;;;;2.70;1.85;;;25.00;51.60;;;;;;5044986;28;20035;-63
2021/08/10 02:40:56;;;;;;;2.90;1.80;;;25.00;51.60;;;;;;5044992;28;20025;-61
2021/08/10 02:43:28;;;;;;;2.50;1.60;;;25.00;51.60;;;;;;5036601;28;20043;-62
2021/08/10 02:45:54;;;;;;;2.70;1.80;;;25.00;51.70;;;;;;5045715;28;20419;-61
2021/08/10 02:48:21;;;;;;;2.97;1.77;;;25.00;51.60;;;;;;5043130;28;20017;-59
2021/08/10 02:50:47;;;;;;;2.80;1.80;;;25.00;51.70;;;;;;5045493;28;20029;-63
2021/08/10 02:53:13;;;;;;;2.75;1.70;;;25.00;51.70;;;;;;5058296;28;20037;-56
2021/08/10 02:55:44;;;;;;;2.38;1.52;;;25.00;51.70;;;;;;5046289;28;20021;-63
2021/08/10 02:58:18;;;;;;;2.42;1.52;;;25.00;51.70;;;;;;5043497;28;20032;-56
2021/08/10 03:00:54;;;;;;;2.60;1.67;;;25.00;51.70;;;;;;5042843;28;20029;-60
2021/08/10 03:03:25;;;;;;;2.40;1.70;;;24.90;51.70;;;;;;5045414;28;20101;-63
2021/08/10 03:05:55;;;;;;;2.22;1.63;;;24.90;51.70;;;;;;5028886;28;20035;-60
2021/08/10 03:08:28;;;;;;;2.20;1.63;;;24.90;51.70;;;;;;5041806;28;20030;-55
2021/08/10 03:10:55;;;;;;;2.10;1.52;;;24.90;51.70;;;;;;5046682;28;20036;-63
2021/08/10 03:13:27;;;;;;;2.25;1.60;;;24.90;51.70;;;;;;5065660;28;20087;-60
2021/08/10 03:15:56;;;;;;;2.50;1.60;;;24.90;51.70;;;;;;5044925;28;20035;-63
2021/08/10 03:18:27;;;;;;;2.05;1.50;;;24.90;51.80;;;;;;5046287;28;20026;-60
2021/08/10 03:20:57;;;;;;;3.00;1.52;;;24.80;51.70;;;;;;5049040;28;20029;-61
2021/08/10 03:23:26;;;;;;;2.42;1.65;;;24.80;51.70;;;;;;5049506;28;20409;-57
2021/08/10 03:25:53;;;;;;;2.72;1.60;;;24.80;51.70;;;;;;5050900;28;20025;-60
2021/08/10 03:28:20;;;;;;;2.38;1.50;;;24.80;51.70;;;;;;5047151;28;20469;-61
2021/08/10 03:30:46;;;;;;;2.70;1.67;;;24.80;51.70;;;;;;5047943;28;20607;-60
2021/08/10 03:33:12;;;;;;;2.30;1.60;;;24.80;51.70;;;;;;5046567;28;20040;-59
2021/08/10 03:35:38;;;;;;;2.58;1.63;;;24.80;52.30;;;;;;5045694;28;20043;-60
2021/08/10 03:38:06;;;;;;;2.97;1.70;;;24.80;51.80;;;;;;5049246;28;20017;-56
2021/08/10 03:40:32;;;;;;;2.22;1.50;;;24.80;51.50;;;;;;5048196;28;20119;-60
2021/08/10 03:42:58;;;;;;;2.08;1.42;;;24.80;51.80;;;;;;5054821;28;20194;-62
2021/08/10 03:45:26;;;;;;;2.75;1.38;;;24.80;51.80;;;;;;5055827;28;20039;-54
2021/08/10 03:47:53;;;;;;;2.63;1.88;;;24.80;51.80;;;;;;5050222;28;20075;-60
2021/08/10 03:50:20;;;;;;;2.33;1.40;;;24.80;51.80;;;;;;5049173;28;20081;-59
2021/08/10 03:52:49;;;;;;;1.98;1.27;;;24.80;51.80;;;;;;5054043;28;20029;-58
2021/08/10 03:55:15;;;;;;;2.17;1.42;;;24.70;51.80;;;;;;5046790;28;20059;-53
2021/08/10 03:57:45;;;;;;;2.50;1.48;;;24.80;51.80;;;;;;5048853;28;20086;-62
2021/08/10 04:00:11;;;;;;;2.58;1.40;;;24.70;51.80;;;;;;5048500;28;20041;-60
2021/08/10 04:02:39;;;;;;;2.17;1.60;;;24.70;51.80;;;;;;5046552;28;20044;-58
2021/08/10 04:05:06;;;;;;;2.05;1.50;;;24.70;51.80;;;;;;5047764;28;20029;-61
2021/08/10 04:07:33;;;;;;;2.05;1.40;;;24.70;51.80;;;;;;5055100;28;20091;-59
2021/08/10 04:09:59;;;;;;;2.20;1.50;;;24.70;51.80;;;;;;5049312;28;20021;-60
2021/08/10 04:12:25;;;;;;;1.92;1.30;;;24.70;51.80;;;;;;5054130;28;20036;-56
2021/08/10 04:14:51;;;;;;;1.58;1.20;;;24.70;51.80;;;;;;5048666;28;20508;-61
2021/08/10 04:17:17;;;;;;;2.05;1.42;;;24.70;51.80;;;;;;5053640;28;20032;-58
2021/08/10 04:19:48;;;;;;;2.22;1.35;;;24.70;51.80;;;;;;5046728;28;20025;-60
2021/08/10 04:22:14;;;;;;;2.15;1.40;;;24.70;51.80;;;;;;5042747;28;20124;-62
2021/08/10 04:24:39;;;;;;;2.30;1.38;;;24.60;51.80;;;;;;5049242;28;20108;-58
2021/08/10 04:27:05;;;;;;;1.85;1.25;;;24.70;51.90;;;;;;5034047;28;20033;-55
2021/08/10 04:29:31;;;;;;;1.80;1.20;;;24.60;51.80;;;;;;5046067;28;20029;-61
2021/08/10 04:31:56;;;;;;;4.68;1.92;;;24.70;51.90;;;;;;5046346;28;20088;-62
2021/08/10 04:34:22;;;;;;;1.60;1.23;;;24.60;51.80;;;;;;5047167;28;20033;-60
2021/08/10 04:36:47;;;;;;;1.88;1.30;;;24.60;51.80;;;;;;5048180;28;20025;-57
2021/08/10 04:39:13;;;;;;;1.83;1.17;;;24.60;51.80;;;;;;5048499;28;20032;-58
2021/08/10 04:41:39;;;;;;;1.92;1.30;;;24.60;51.80;;;;;;5047990;28;20017;-59
2021/08/10 04:44:06;;;;;;;2.00;1.30;;;24.60;51.80;;;;;;5045160;28;20032;-53
2021/08/10 04:46:33;;;;;;;2.00;1.35;;;24.60;51.90;;;;;;5067565;28;20132;-54
2021/08/10 04:48:58;;;;;;;1.95;1.27;;;24.60;51.90;;;;;;5054068;28;20439;-59
2021/08/10 04:51:25;;;;;;;2.30;1.40;;;24.60;51.80;;;;;;5042702;28;20416;-59
2021/08/10 04:53:50;;;;;;;2.30;1.30;;;24.60;51.90;;;;;;5045928;28;20079;-58
2021/08/10 04:56:16;;;;;;;2.13;1.40;;;24.60;51.90;;;;;;5048505;28;20145;-61
2021/08/10 04:58:42;;;;;;;2.00;1.33;;;24.60;51.90;;;;;;5055389;28;20111;-59
2021/08/10 05:01:07;;;;;;;2.42;1.30;;;24.50;52.30;;;;;;5047491;28;20064;-59
2021/08/10 05:03:33;;;;;;;2.00;1.40;;;24.60;51.90;;;;;;5046252;28;20066;-58
2021/08/10 05:05:59;;;;;;;1.65;1.25;;;24.50;51.80;;;;;;5045720;28;20029;-60
2021/08/10 05:08:25;;;;;;;1.88;1.30;;;24.50;51.80;;;;;;5041998;28;20048;-60
2021/08/10 05:10:53;;;;;;;2.05;1.30;;;24.50;51.90;;;;;;5037188;28;20026;-59
2021/08/10 05:13:19;;;;;;;1.88;1.35;;;24.50;51.90;;;;;;5034750;28;20389;-56
2021/08/10 05:15:44;;;;;;;1.80;1.30;;;24.50;51.90;;;;;;5046477;28;20347;-61
2021/08/10 05:18:10;;;;;;;1.88;1.30;;;24.50;51.90;;;;;;5045583;28;20146;-59
2021/08/10 05:20:35;;;;;;;2.03;1.27;;;24.50;51.90;;;;;;5047556;28;20029;-58
2021/08/10 05:23:01;;;;;;;1.67;1.15;;;24.50;51.90;;;;;;5047741;28;20045;-57
2021/08/10 05:25:27;;;;;;;3.17;1.20;;;24.50;51.90;;;;;;5046365;28;20399;-58
2021/08/10 05:27:52;;;;;;;1.85;1.30;;;24.50;52.40;;;;;;5044773;28;20040;-59
2021/08/10 05:30:18;;;;;;;1.88;1.23;;;24.50;51.90;;;;;;5046324;28;20079;-61
2021/08/10 05:32:44;;;;;;;1.90;1.30;;;24.40;51.90;;;;;;5045425;28;20037;-59
2021/08/10 05:35:11;;;;;;;1.63;1.20;;;24.40;51.90;;;;;;5039966;28;20732;-60
2021/08/10 05:37:36;;;;;;;1.50;1.10;;;24.40;51.90;;;;;;5047026;28;20029;-61
2021/08/10 05:40:02;;;;;;;1.88;1.10;;;24.40;51.90;;;;;;5052735;28;20070;-61
2021/08/10 05:42:29;;;;;;;1.75;1.10;;;24.40;51.90;;;;;;5042672;28;20104;-60
2021/08/10 05:44:54;;;;;;;1.90;1.17;;;24.40;52.50;;;;;;5047572;28;20031;-55
2021/08/10 05:47:20;;;;;;;1.17;0.90;;;24.40;52.00;;;;;;5046478;28;20684;-62
2021/08/10 05:49:46;;;;;;;2.03;1.33;;;24.40;51.90;;;;;;5065652;28;20064;-56
2021/08/10 05:52:12;;;;;;;1.80;1.20;;;24.40;51.90;;;;;;5045737;28;20037;-61
2021/08/10 05:54:38;;;;;;;1.70;1.13;;;24.40;51.90;;;;;;5046226;28;20525;-58
2021/08/10 05:57:04;;;;;;;1.55;1.08;;;24.40;51.90;;;;;;5044244;28;20090;-59
2021/08/10 05:59:29;;;;;;;1.90;1.10;;;24.40;52.00;;;;;;5046705;28;20033;-59
2021/08/10 06:01:57;;;;;;;1.88;1.15;;;24.30;51.90;;;;;;5032403;28;20576;-59
2021/08/10 06:04:23;;;;;;;1.20;1.00;;;24.30;51.50;;;;;;5037595;28;20112;-63
2021/08/10 06:06:48;;;;;;;1.38;1.05;;;24.30;50.80;;;;;;5045433;28;20536;-63
2021/08/10 06:09:14;;;;;;;3.33;1.30;;;24.30;50.40;;;;;;5046207;28;20060;-60
2021/08/10 06:11:40;;;;;;;1.88;1.20;;;24.20;50.10;;;;;;5045174;28;20024;-59
2021/08/10 06:14:06;;;;;;;2.58;1.17;;;24.20;49.90;;;;;;5044740;28;20032;-62
2021/08/10 06:16:33;;;;;;;1.75;1.35;;;24.10;49.90;;;;;;5045249;28;20036;-59
2021/08/10 06:18:59;;;;;;;1.95;1.30;;;24.00;50.00;;;;;;5039016;28;20210;-62
2021/08/10 06:21:25;;;;;;;2.05;1.38;;;23.90;50.30;;;;;;5040284;28;20025;-61
2021/08/10 06:23:51;;;;;;;2.65;1.70;;;23.90;50.50;;;;;;5037425;28;20051;-59
2021/08/10 06:26:17;;;;;;;3.10;1.70;;;23.80;51.00;;;;;;5040307;28;20429;-55
2021/08/10 06:28:42;;;;;;;3.25;1.60;;;23.70;51.20;;;;;;5040547;28;20082;-60
2021/08/10 06:31:11;;;;;;;3.42;1.60;;;23.60;51.40;;;;;;5038667;28;20032;-60
2021/08/10 06:33:39;;;;;;;3.65;1.70;;;23.60;51.60;;;;;;5044974;28;20118;-60
2021/08/10 06:36:05;;;;;;;2.78;1.70;;;23.60;51.90;;;;;;5045304;28;20036;-59
2021/08/10 06:38:32;;;;;;;3.15;1.83;;;23.40;52.80;;;;;;5039523;28;20021;-60
2021/08/10 06:40:58;;;;;;;2.40;1.90;;;23.30;52.70;;;;;;5029243;28;20477;-61
2021/08/10 06:43:24;;;;;;;3.10;1.85;;;23.30;53.00;;;;;;5046367;28;20082;-60
2021/08/10 06:45:49;;;;;;;4.07;1.98;;;23.20;53.10;;;;;;5049770;28;20033;-55
2021/08/10 06:48:15;;;;;;;2.97;2.05;;;23.10;53.60;;;;;;5043371;28;20036;-58
2021/08/10 06:50:41;;;;;;;3.92;2.60;;;23.00;53.70;;;;;;5046828;28;20044;-56
2021/08/10 06:53:07;;;;;;;3.22;2.15;;;22.80;53.70;;;;;;5055878;28;20140;-61
2021/08/10 06:55:32;;;;;;;3.75;2.00;;;22.80;54.20;;;;;;5042534;28;20496;-56
2021/08/10 06:57:59;;;;;;;4.60;1.90;;;22.80;53.90;;;;;;5048286;28;20029;-61
2021/08/10 07:00:25;;;;;;;3.25;1.85;;;22.80;54.20;;;;;;5045287;28;20504;-57
2021/08/10 07:02:50;;;;;;;3.35;2.00;;;22.80;54.50;;;;;;5035045;28;20021;-58
2021/08/10 07:05:16;;;;;;;2.95;1.88;;;22.70;53.90;;;;;;5048392;28;20056;-61
2021/08/10 07:07:42;;;;;;;3.97;2.00;;;22.70;53.80;;;;;;5043284;28;20032;-57
2021/08/10 07:10:08;;;;;;;3.40;2.10;;;22.60;53.80;;;;;;5040524;28;20100;-58
2021/08/10 07:12:34;;;;;;;3.45;2.05;;;22.60;54.10;;;;;;5036245;28;20105;-61
2021/08/10 07:14:59;;;;;;;4.63;2.50;;;22.50;54.30;;;;;;5040531;28;20028;-60
2021/08/10 07:17:25;;;;;;;4.47;2.40;;;22.50;54.20;;;;;;5043002;28;20067;-57
2021/08/10 07:19:51;;;;;;;3.85;2.00;;;22.40;54.20;;;;;;5041771;28;20426;-60
2021/08/10 07:22:16;;;;;;;3.28;1.90;;;22.50;54.20;;;;;;5041318;28;20055;-58
2021/08/10 07:24:42;;;;;;;3.97;2.00;;;22.50;54.20;;;;;;5036220;28;20029;-55
2021/08/10 07:27:08;;;;;;;2.78;2.10;;;22.50;54.20;;;;;;5041422;28;20342;-53
2021/08/10 07:29:33;;;;;;;3.17;2.13;;;22.60;54.30;;;;;;5044547;28;20049;-60
2021/08/10 07:31:59;;;;;;;4.00;2.08;;;22.50;54.10;;;;;;5040806;28;20052;-60
2021/08/10 07:34:25;;;;;;;3.30;2.10;;;22.50;54.70;;;;;;5041773;28;20481;-59
2021/08/10 07:36:50;;;;;;;2.88;2.20;;;22.50;54.60;;;;;;5045298;28;20060;-60
2021/08/10 07:39:16;;;;;;;3.78;2.35;;;22.30;54.50;;;;;;5043568;28;20025;-60
2021/08/10 07:41:42;;;;;;;3.53;2.42;;;22.20;54.50;;;;;;5044840;28;20037;-59
2021/08/10 07:44:07;;;;;;;3.58;2.03;;;22.20;54.80;;;;;;5045606;28;20114;-55
2021/08/10 07:46:33;;;;;;;2.85;1.77;;;22.30;54.60;;;;;;5044161;28;20032;-57
2021/08/10 07:48:59;;;;;;;2.28;1.50;;;22.30;54.40;;;;;;5047523;28;20074;-58
2021/08/10 07:51:25;;;;;;;2.50;1.50;;;22.40;54.20;;;;;;5034389;28;20029;-59
2021/08/10 07:53:51;;;;;;;2.20;1.40;;;22.50;54.20;;;;;;5048123;28;20491;-60
2021/08/10 07:56:17;;;;;;;2.38;1.40;;;22.50;54.00;;;;;;5045438;28;20032;-59
2021/08/10 07:58:43;;;;;;;2.72;1.50;;;22.60;53.90;;;;;;5044862;28;20025;-56
2021/08/10 08:01:08;;;;;;;3.53;1.88;;;22.60;53.80;;;;;;5045192;28;20021;-61
2021/08/10 08:03:35;;;;;;;2.10;1.40;;;22.60;53.80;;;;;;5045844;28;20096;-61
2021/08/10 08:06:00;;;;;;;1.90;1.15;;;22.60;53.70;;;;;;5047253;28;20533;-60
2021/08/10 08:08:28;;;;;;;2.90;1.40;;;22.70;53.80;;;;;;5044068;28;20037;-60
2021/08/10 08:10:54;;;;;;;2.20;1.50;;;22.70;53.70;;;;;;5053447;28;20043;-62
2021/08/10 08:13:20;;;;;;;1.70;1.10;;;22.70;53.70;;;;;;5048352;28;20067;-58
2021/08/10 08:15:47;;;;;;;1.98;1.30;;;22.70;53.70;;;;;;5054767;28;20499;-59
2021/08/10 08:18:12;;;;;;;2.08;1.20;;;22.70;53.60;;;;;;5048243;28;20033;-60
2021/08/10 08:20:38;;;;;;;1.90;1.23;;;22.70;53.60;;;;;;5051517;28;20048;-57
2021/08/10 08:23:04;;;;;;;2.17;1.30;;;22.70;53.60;;;;;;5049337;28;20033;-59
2021/08/10 08:25:30;;;;;;;2.00;1.30;;;22.80;53.60;;;;;;5053651;28;20028;-61
2021/08/10 08:27:55;;;;;;;1.98;1.30;;;22.80;53.60;;;;;;5057980;28;20055;-59
2021/08/10 08:30:21;;;;;;;2.38;1.45;;;22.80;53.60;;;;;;5048344;28;20076;-56
2021/08/10 08:32:47;;;;;;;1.75;1.02;;;22.80;53.50;;;;;;5049324;28;20519;-59
2021/08/10 08:35:12;;;;;;;2.08;1.17;;;22.80;53.50;;;;;;5047773;28;20115;-60
2021/08/10 08:37:39;;;;;;;1.80;1.30;;;22.80;53.50;;;;;;5047203;28;20077;-62
2021/08/10 08:40:06;;;;;;;2.47;1.50;;;22.80;53.50;;;;;;5048121;28;20495;-55
2021/08/10 08:42:33;;;;;;;2.35;1.35;;;22.90;53.50;;;;;;5043883;28;20017;-62
2021/08/10 08:44:59;;;;;;;1.58;1.10;;;22.80;53.40;;;;;;5048522;28;20085;-59
2021/08/10 08:47:25;;;;;;;3.05;1.48;;;22.90;53.50;;;;;;5050260;28;20068;-61
2021/08/10 08:49:54;;;;;;;1.88;1.10;;;22.90;53.50;;;;;;5046592;28;20036;-59
2021/08/10 08:52:20;;;;;;;1.75;1.20;;;22.90;53.50;;;;;;5040959;28;20568;-61
2021/08/10 08:54:46;;;;;;;1.90;1.20;;;22.90;53.50;;;;;;5057426;28;20127;-60
2021/08/10 08:57:12;;;;;;;2.83;1.42;;;22.90;53.50;;;;;;5046509;28;20177;-57
2021/08/10 08:59:42;;;;;;;1.92;1.23;;;22.90;53.50;;;;;;5042686;28;20083;-59
2021/08/10 09:02:16;;;;;;;2.15;1.20;;;22.90;53.40;;;;;;5046458;28;20041;-59
2021/08/10 09:04:42;;;;;;;2.15;1.17;;;23.00;54.00;;;;;;5043462;28;20398;-61
2021/08/10 09:07:08;;;;;;;2.25;1.30;;;23.00;53.50;;;;;;5043787;28;20025;-60
2021/08/10 09:09:34;;;;;;;2.00;1.15;;;23.00;53.50;;;;;;5042104;28;20032;-51
2021/08/10 09:12:07;;;;;;;1.95;1.23;;;23.00;53.50;;;;;;5045412;28;20024;-56
2021/08/10 09:14:48;;;;;;;2.08;1.20;;;23.00;53.40;;;;;;5044165;28;20449;-59
2021/08/10 09:17:22;;;;;;;2.75;1.27;;;23.00;53.40;;;;;;5042441;28;20536;-61
2021/08/10 09:19:53;;;;;;;2.97;1.27;;;23.00;53.40;;;;;;5048490;28;20089;-59
2021/08/10 09:22:28;;;;;;;1.73;1.20;;;23.00;53.40;;;;;;5048305;28;20025;-61
2021/08/10 09:25:06;;;;;;;1.70;1.13;;;23.00;53.40;;;;;;5045064;28;20112;-61
2021/08/10 09:27:39;;;;;;;1.70;1.10;;;23.00;53.40;;;;;;5044817;28;20037;-59
2021/08/10 09:30:28;;;;;;;1.70;1.13;;;23.00;53.30;;;;;;5047690;28;20373;-59
2021/08/10 09:32:59;;;;;;;2.33;1.30;;;23.10;53.40;;;;;;5035522;28;20095;-58
2021/08/10 09:35:32;;;;;;;1.80;1.15;;;23.00;53.40;;;;;;5058270;28;20098;-59
2021/08/10 09:38:16;;;;;;;2.15;1.10;;;23.10;53.40;;;;;;5050041;28;20025;-56
2021/08/10 09:40:44;;;;;;;2.03;1.20;;;23.10;53.40;;;;;;5045253;28;20017;-59
2021/08/10 09:43:35;;;;;;;1.60;1.10;;;23.10;53.30;;;;;;5046953;28;20028;-61
2021/08/10 09:46:08;;;;;;;1.83;1.20;;;23.10;53.40;;;;;;5044700;28;20121;-60
2021/08/10 09:48:34;;;;;;;1.85;1.30;;;23.10;53.30;;;;;;5058899;28;20299;-61
2021/08/10 09:51:14;;;;;;;1.65;1.15;;;23.10;53.30;;;;;;5043567;28;20033;-58
2021/08/10 09:53:41;;;;;;;1.33;1.00;;;23.10;53.30;;;;;;5035687;28;20464;-59
2021/08/10 09:56:07;;;;;;;1.98;1.30;;;23.10;53.30;;;;;;5045369;28;20365;-58
2021/08/10 09:58:56;;;;;;;1.85;1.13;;;23.10;53.30;;;;;;5044022;28;20048;-55
2021/08/10 10:01:36;;;;;;;1.67;1.10;;;23.10;53.30;;;;;;5045080;28;20041;-61
2021/08/10 10:04:31;;;;;;;1.55;1.10;;;23.10;53.30;;;;;;5041242;28;20817;-63
2021/08/10 10:07:11;;;;;;;2.17;1.20;;;23.10;53.30;;;;;;5043665;28;20544;-61
2021/08/10 10:09:37;;;;;;;1.52;1.08;;;23.10;53.30;;;;;;5044668;28;20112;-52
2021/08/10 10:12:04;;;;;;;2.15;1.20;;;23.10;53.30;;;;;;5044229;28;20127;-59
2021/08/10 10:14:30;;;;;;;1.58;1.10;;;23.20;53.30;;;;;;5045067;28;20548;-60
2021/08/10 10:16:58;;;;;;;2.63;1.20;;;23.20;53.30;;;;;;5043798;28;20075;-61
2021/08/10 10:19:24;;;;;;;2.53;1.13;;;23.20;53.30;;;;;;5040821;28;20025;-60
2021/08/10 10:21:51;;;;;;;1.80;1.20;;;23.20;53.30;;;;;;5042894;28;20389;-57
2021/08/10 10:24:19;;;;;;;1.95;1.10;;;23.20;53.30;;;;;;5045666;28;20041;-60
2021/08/10 10:27:07;;;;;;;1.80;1.10;;;23.20;53.30;;;;;;5038121;28;20440;-57
2021/08/10 10:29:33;;;;;;;1.90;1.13;;;23.20;53.30;;;;;;5037607;28;20037;-61
2021/08/10 10:32:00;;;;;;;1.65;1.20;;;23.20;53.30;;;;;;5039865;28;20036;-57
2021/08/10 10:34:27;;;;;;;1.77;1.00;;;23.20;53.30;;;;;;5041557;28;20501;-61
2021/08/10 10:36:53;;;;;;;2.28;1.10;;;23.20;53.20;;;;;;5032445;28;20039;-61
2021/08/10 10:39:30;;;;;;;1.95;1.10;;;23.30;53.30;;;;;;5039598;28;20210;-60
2021/08/10 10:41:59;;;;;;;1.95;1.17;;;23.30;53.30;;;;;;5043665;28;20025;-62
2021/08/10 10:44:36;;;;;;;1.90;0.98;;;23.30;53.30;;;;;;5044819;28;20043;-60
2021/08/10 10:47:21;;;;;;;1.33;1.00;;;23.30;53.30;;;;;;5041866;28;20111;-58
2021/08/10 10:50:06;;;;;;;1.40;1.10;;;23.30;53.30;;;;;;5038681;28;20040;-61
2021/08/10 10:52:34;;;;;;;2.25;1.20;;;23.30;53.30;;;;;;5039267;28;20120;-61
2021/08/10 10:55:01;;;;;;;1.65;1.02;;;23.30;53.30;;;;;;5044927;28;20033;-60
2021/08/10 10:57:29;;;;;;;2.17;1.20;;;23.40;53.40;;;;;;5035767;28;20469;-62
2021/08/10 10:59:59;;;;;;;1.63;1.10;;;23.40;53.40;;;;;;5029045;28;20029;-58
2021/08/10 11:02:25;;;;;;;1.98;1.10;;;23.40;53.40;;;;;;5041654;28;20283;-58
2021/08/10 11:05:07;;;;;;;1.67;1.05;;;23.40;53.50;;;;;;5041405;28;20033;-60
2021/08/10 11:07:47;;;;;;;1.40;1.00;;;23.40;53.50;;;;;;5044993;28;20040;-58
2021/08/10 11:10:34;;;;;;;1.90;1.00;;;23.50;53.50;;;;;;5037614;28;20317;-59
2021/08/10 11:13:00;;;;;;;1.70;1.17;;;23.50;53.40;;;;;;5034198;28;20037;-57
2021/08/10 11:15:44;;;;;;;1.42;1.02;;;23.60;53.40;;;;;;5038242;28;20033;-63
2021/08/10 11:18:09;;;;;;;1.90;1.10;;;23.60;53.30;;;;;;5035847;28;20395;-60
2021/08/10 11:20:37;;;;;;;1.90;1.27;;;23.60;53.20;;;;;;5043167;28;20025;-60
2021/08/10 11:23:24;;;;;;;1.95;1.20;;;23.60;53.20;;;;;;5040790;28;20476;-62
2021/08/10 11:25:59;;;;;;;2.03;1.10;;;23.70;53.20;;;;;;5035638;28;20033;-60
2021/08/10 11:28:32;;;;;;;2.03;1.20;;;23.70;53.10;;;;;;5046824;28;20537;-57
2021/08/10 11:31:00;;;;;;;2.47;1.10;;;23.70;53.00;;;;;;5039008;28;20500;-62
2021/08/10 11:33:32;;;;;;;2.17;1.30;;;23.80;53.00;;;;;;5040432;28;20037;-59
2021/08/10 11:36:10;;;;;;;1.60;1.10;;;23.80;52.90;;;;;;5043149;28;20055;-61
2021/08/10 11:38:45;;;;;;;2.05;1.27;;;23.80;52.80;;;;;;5040592;28;20025;-59
2021/08/10 11:41:12;;;;;;;2.00;1.00;;;23.80;52.90;;;;;;5043055;28;20392;-58
2021/08/10 11:43:44;;;;;;;1.60;1.10;;;23.90;52.90;;;;;;5043194;28;20140;-59
2021/08/10 11:46:24;;;;;;;1.52;1.00;;;23.90;52.90;;;;;;5051396;28;20127;-61
2021/08/10 11:48:51;;;;;;;1.38;1.00;;;23.90;52.80;;;;;;5040750;28;20033;-61
2021/08/10 11:51:21;;;;;;;1.80;1.10;;;23.90;52.80;;;;;;5040869;28;20029;-60
2021/08/10 11:53:55;;;;;;;1.40;0.98;;;23.90;52.80;;;;;;5041603;28;20048;-60
2021/08/10 11:56:32;;;;;;;1.25;1.00;;;24.00;52.80;;;;;;5034332;28;20040;-60
2021/08/10 11:58:59;;;;;;;1.50;0.90;;;24.00;52.70;;;;;;5041533;28;20098;-61
2021/08/10 12:01:27;;;;;;;1.50;1.10;;;24.00;52.70;;;;;;5039770;28;20051;-62
2021/08/10 12:03:53;;;;;;;1.42;1.00;;;24.00;52.60;;;;;;5038761;28;20120;-63
2021/08/10 12:06:28;;;;;;;2.30;1.00;;;24.10;52.70;;;;;;5039949;28;20523;-59
2021/08/10 12:08:55;;;;;;;1.17;0.98;;;24.10;52.70;;;;;;5028608;28;20154;-61
2021/08/10 12:11:24;;;;;;;1.30;1.00;;;24.10;52.60;;;;;;5039747;28;20040;-61
2021/08/10 12:13:50;;;;;;;1.65;1.08;;;24.10;52.60;;;;;;5041930;28;20095;-60
2021/08/10 12:16:16;;;;;;;1.70;1.10;;;24.10;52.60;;;;;;5044302;28;20037;-62
2021/08/10 12:18:49;;;;;;;2.50;1.13;;;24.10;52.60;;;;;;5042105;28;20032;-59
2021/08/10 12:21:16;;;;;;;2.42;1.23;;;24.10;52.60;;;;;;5034500;28;20115;-60
2021/08/10 12:23:50;;;;;;;1.45;1.00;;;24.10;52.50;;;;;;5034332;28;20395;-63
2021/08/10 12:26:20;;;;;;;1.63;0.98;;;24.10;52.50;;;;;;5035271;28;20800;-61
2021/08/10 12:29:01;;;;;;;1.48;1.10;;;24.10;52.50;;;;;;5040420;28;20028;-60
2021/08/10 12:31:29;;;;;;;1.38;1.02;;;24.20;52.50;;;;;;5036260;28;20049;-61
2021/08/10 12:33:56;;;;;;;1.42;1.00;;;24.20;52.50;;;;;;5040141;28;20032;-60
2021/08/10 12:36:23;;;;;;;1.52;1.00;;;24.20;52.50;;;;;;5045401;28;20509;-61
2021/08/10 12:38:50;;;;;;;1.50;1.00;;;24.20;52.50;;;;;;5043831;28;20029;-62
2021/08/10 12:41:20;;;;;;;1.60;1.10;;;24.20;52.50;;;;;;5033939;28;20033;-61
2021/08/10 12:43:50;;;;;;;1.13;0.85;;;24.20;52.50;;;;;;5041383;28;20037;-62
2021/08/10 12:46:34;;;;;;;1.42;0.90;;;24.20;52.50;;;;;;5045495;28;20756;-62
2021/08/10 12:49:11;;;;;;;2.17;1.30;;;24.30;52.60;;;;;;5049326;28;20054;-64
2021/08/10 12:51:51;;;;;;;1.45;1.05;;;24.30;52.50;;;;;;5041637;28;20037;-59
2021/08/10 12:54:17;;;;;;;1.70;1.20;;;24.30;52.40;;;;;;5048024;28;20041;-59
2021/08/10 12:56:43;;;;;;;1.73;1.27;;;24.40;52.40;;;;;;5045681;28;20311;-57